createdAt,value
2022-07-25T00:00:59.150Z,23.375
2022-07-25T00:03:58.545Z,23.312
2022-07-25T00:06:58.964Z,23.312
2022-07-25T00:09:59.668Z,23.375
2022-07-25T00:12:58.390Z,23.312
2022-07-25T00:15:59.239Z,23.125
2022-07-25T00:18:58.535Z,23.187
2022-07-25T00:21:58.931Z,23.187
2022-07-25T00:24:59.071Z,23.187
2022-07-25T00:27:59.302Z,23.187
2022-07-25T00:30:59.745Z,23.187
2022-07-25T00:33:58.709Z,23.187
2022-07-25T00:36:59.532Z,23.187
2022-07-25T00:39:59.145Z,23.062
2022-07-25T00:42:59.473Z,23.125
2022-07-25T00:45:59.521Z,23.125
2022-07-25T00:48:59.422Z,23.062
2022-07-25T00:51:58.469Z,23.062
2022-07-25T00:54:58.580Z,23.062
2022-07-25T00:57:59.383Z,23.062
2022-07-25T01:00:59.394Z,23.062
2022-07-25T01:03:59.093Z,23.0
2022-07-25T01:06:58.545Z,23.0
2022-07-25T01:09:59.308Z,22.937
2022-07-25T01:12:58.166Z,22.812
2022-07-25T01:15:59.346Z,22.937
2022-07-25T01:18:58.596Z,22.937
2022-07-25T01:21:58.806Z,22.625
2022-07-25T01:24:58.840Z,22.687
2022-07-25T01:27:58.659Z,22.687
2022-07-25T01:30:59.155Z,22.625
2022-07-25T01:33:58.871Z,22.562
2022-07-25T01:36:58.742Z,22.562
2022-07-25T01:39:59.443Z,22.562
2022-07-25T01:42:58.725Z,22.562
2022-07-25T01:45:58.753Z,22.562
2022-07-25T01:48:59.391Z,22.75
2022-07-25T01:51:58.531Z,22.687
2022-07-25T01:54:58.555Z,22.687
2022-07-25T01:57:58.610Z,22.625
2022-07-25T02:00:59.520Z,22.5
2022-07-25T02:03:59.430Z,22.5
2022-07-25T02:06:58.401Z,22.5
2022-07-25T02:09:59.283Z,22.375
2022-07-25T02:12:59.366Z,22.25
2022-07-25T02:15:59.242Z,22.25
2022-07-25T02:18:58.232Z,22.312
2022-07-25T02:21:59.409Z,22.187
2022-07-25T02:24:59.094Z,22.187
2022-07-25T02:27:59.172Z,22.125
2022-07-25T02:30:59.631Z,22.125
2022-07-25T02:33:58.346Z,22.187
2022-07-25T02:36:59.255Z,22.187
2022-07-25T02:39:59.365Z,22.187
2022-07-25T02:42:59.136Z,22.25
2022-07-25T02:45:59.258Z,22.25
2022-07-25T02:48:58.867Z,22.187
2022-07-25T02:51:59.106Z,22.187
2022-07-25T02:54:59.825Z,22.25
2022-07-25T02:57:59.208Z,22.125
2022-07-25T03:01:00.093Z,22.125
2022-07-25T03:03:58.900Z,22.312
2022-07-25T03:06:58.950Z,22.25
2022-07-25T03:09:58.537Z,22.187
2022-07-25T03:12:58.526Z,22.125
2022-07-25T03:15:58.725Z,22.125
2022-07-25T03:18:59.302Z,22.125
2022-07-25T03:21:58.769Z,22.125
2022-07-25T03:24:58.390Z,22.125
2022-07-25T03:27:59.337Z,22.187
2022-07-25T03:30:58.959Z,22.187
2022-07-25T03:33:58.753Z,22.062
2022-07-25T03:36:59.326Z,22.062
2022-07-25T03:39:58.670Z,22.25
2022-07-25T03:42:58.945Z,22.187
2022-07-25T03:45:58.516Z,22.187
2022-07-25T03:48:59.060Z,22.25
2022-07-25T03:51:59.052Z,22.187
2022-07-25T03:54:58.938Z,22.312
2022-07-25T03:57:58.269Z,22.312
2022-07-25T04:00:58.979Z,22.375
2022-07-25T04:03:58.341Z,22.437
2022-07-25T04:06:59.264Z,22.562
2022-07-25T04:09:59.151Z,22.75
2022-07-25T04:12:58.900Z,22.75
2022-07-25T04:15:58.877Z,22.875
2022-07-25T04:18:58.729Z,22.875
2022-07-25T04:21:58.693Z,22.937
2022-07-25T04:24:59.443Z,22.875
2022-07-25T04:27:59.359Z,22.937
2022-07-25T04:30:58.947Z,22.75
2022-07-25T04:33:58.854Z,22.812
2022-07-25T04:36:59.535Z,22.937
2022-07-25T04:39:59.336Z,22.937
2022-07-25T04:42:58.838Z,23.25
2022-07-25T04:45:59.896Z,23.25
2022-07-25T04:48:59.694Z,23.437
2022-07-25T04:51:59.145Z,23.5
2022-07-25T04:54:59.213Z,23.5
2022-07-25T04:58:00.162Z,23.625
2022-07-25T05:00:59.763Z,23.625
2022-07-25T05:03:59.184Z,23.687
2022-07-25T05:07:00.134Z,23.687
2022-07-25T05:09:59.059Z,23.687
2022-07-25T05:12:58.977Z,23.687
2022-07-25T05:15:59.960Z,23.75
2022-07-25T05:18:59.253Z,23.75
2022-07-25T05:21:59.815Z,23.75
2022-07-25T05:24:59.365Z,23.75
2022-07-25T05:27:59.040Z,23.812
2022-07-25T05:30:59.905Z,23.625
2022-07-25T05:33:58.670Z,23.687
2022-07-25T05:36:58.868Z,23.937
2022-07-25T05:39:59.698Z,23.812
2022-07-25T05:43:03.330Z,24.0
2022-07-25T05:45:59.635Z,23.937
2022-07-25T05:48:59.528Z,24.125
2022-07-25T05:51:59.524Z,24.25
2022-07-25T05:54:59.391Z,24.125
2022-07-25T05:57:59.640Z,24.25
2022-07-25T06:00:59.423Z,24.25
2022-07-25T06:03:59.134Z,24.25
2022-07-25T06:06:59.220Z,24.625
2022-07-25T06:09:59.218Z,25.0
2022-07-25T06:12:59.336Z,25.0
2022-07-25T06:15:59.850Z,25.0
2022-07-25T06:18:59.162Z,25.125
2022-07-25T06:21:59.461Z,25.0
2022-07-25T06:24:58.794Z,24.875
2022-07-25T06:27:59.896Z,24.75
2022-07-25T06:30:58.893Z,24.75
2022-07-25T06:33:59.553Z,24.625
2022-07-25T06:36:58.770Z,24.812
2022-07-25T06:39:58.765Z,24.937
2022-07-25T06:42:59.200Z,24.937
2022-07-25T06:45:59.566Z,25.312
2022-07-25T06:48:59.225Z,25.312
2022-07-25T06:51:59.185Z,25.375
2022-07-25T06:54:58.596Z,25.437
2022-07-25T06:57:59.442Z,25.437
2022-07-25T07:00:59.368Z,25.875
2022-07-25T07:03:58.392Z,25.75
2022-07-25T07:06:59.155Z,25.75
2022-07-25T07:09:59.459Z,25.75
2022-07-25T07:12:59.090Z,25.75
2022-07-25T07:15:59.210Z,26.437
2022-07-25T07:18:59.092Z,26.812
2022-07-25T07:21:58.575Z,26.75
2022-07-25T07:24:59.077Z,26.5
2022-07-25T07:27:59.456Z,26.937
2022-07-25T07:31:15.615Z,27.125
2022-07-25T07:33:58.844Z,26.812
2022-07-25T07:36:58.955Z,26.812
2022-07-25T07:39:59.398Z,27.375
2022-07-25T07:42:59.400Z,27.75
2022-07-25T07:45:59.883Z,27.812
2022-07-25T07:48:58.794Z,27.5
2022-07-25T07:51:59.101Z,27.5
2022-07-25T07:54:59.499Z,27.5
2022-07-25T07:57:58.581Z,28.125
2022-07-25T08:00:59.127Z,28.25
2022-07-25T08:03:59.371Z,28.25
2022-07-25T08:06:59.038Z,28.375
2022-07-25T08:09:58.934Z,28.25
2022-07-25T08:12:58.987Z,29.0
2022-07-25T08:15:59.498Z,29.062
2022-07-25T08:18:58.909Z,29.062
2022-07-25T08:21:59.165Z,29.937
2022-07-25T08:24:58.699Z,30.0
2022-07-25T08:27:59.170Z,29.75
2022-07-25T08:30:59.657Z,29.75
2022-07-25T08:33:58.525Z,30.25
2022-07-25T08:36:59.531Z,29.875
2022-07-25T08:39:58.777Z,30.187
2022-07-25T08:42:58.761Z,30.5
2022-07-25T08:45:59.109Z,30.812
2022-07-25T08:48:58.712Z,30.812
2022-07-25T08:51:59.077Z,31.125
2022-07-25T08:54:58.141Z,31.25
2022-07-25T08:57:59.145Z,30.75
2022-07-25T09:00:58.802Z,31.0
2022-07-25T09:03:58.394Z,31.25
2022-07-25T09:06:58.493Z,31.187
2022-07-25T09:09:59.684Z,31.0
2022-07-25T09:12:58.904Z,31.187
2022-07-25T09:15:58.944Z,31.625
2022-07-25T09:18:59.090Z,31.187
2022-07-25T09:21:59.579Z,31.312
2022-07-25T09:24:59.445Z,31.437
2022-07-25T09:27:59.411Z,30.875
2022-07-25T09:30:58.901Z,30.875
2022-07-25T09:33:58.858Z,31.875
2022-07-25T09:36:59.256Z,32.0
2022-07-25T09:39:59.230Z,32.0
2022-07-25T09:42:58.840Z,32.375
2022-07-25T09:45:59.152Z,32.312
2022-07-25T09:48:59.153Z,32.187
2022-07-25T09:51:58.968Z,32.375
2022-07-25T09:54:59.205Z,32.0
2022-07-25T09:57:58.371Z,32.125
2022-07-25T10:00:59.055Z,32.0
2022-07-25T10:03:59.290Z,32.312
2022-07-25T10:06:58.387Z,32.125
2022-07-25T10:09:59.287Z,32.625
2022-07-25T10:12:58.562Z,32.937
2022-07-25T10:15:59.090Z,32.937
2022-07-25T10:18:58.923Z,33.125
2022-07-25T10:21:58.876Z,33.375
2022-07-25T10:24:58.671Z,33.375
2022-07-25T10:27:58.531Z,33.375
2022-07-25T10:30:58.911Z,33.437
2022-07-25T10:33:59.410Z,33.125
2022-07-25T10:36:58.646Z,32.75
2022-07-25T10:39:59.394Z,32.562
2022-07-25T10:42:58.446Z,33.0
2022-07-25T10:45:58.862Z,33.375
2022-07-25T10:48:59.376Z,33.625
2022-07-25T10:51:58.275Z,34.125
2022-07-25T10:54:59.155Z,33.312
2022-07-25T10:58:16.708Z,33.625
2022-07-25T11:00:59.584Z,33.75
2022-07-25T11:04:16.236Z,33.75
2022-07-25T11:06:58.499Z,32.75
2022-07-25T11:09:58.962Z,33.562
2022-07-25T11:12:59.002Z,33.562
2022-07-25T11:15:59.077Z,33.75
2022-07-25T11:18:59.297Z,33.5
2022-07-25T11:21:59.313Z,33.5
2022-07-25T11:24:59.205Z,33.75
2022-07-25T11:27:58.477Z,34.125
2022-07-25T11:30:58.807Z,35.062
2022-07-25T11:33:58.695Z,34.312
2022-07-25T11:36:58.687Z,34.5
2022-07-25T11:39:59.427Z,33.75
2022-07-25T11:42:59.489Z,34.312
2022-07-25T11:45:58.636Z,34.562
2022-07-25T11:48:58.571Z,34.562
2022-07-25T11:51:58.585Z,33.812
2022-07-25T11:54:58.822Z,33.25
2022-07-25T11:57:58.493Z,33.25
2022-07-25T12:00:59.454Z,33.25
2022-07-25T12:03:59.128Z,34.062
2022-07-25T12:06:59.422Z,34.562
2022-07-25T12:09:59.822Z,34.687
2022-07-25T12:12:59.332Z,35.312
2022-07-25T12:15:59.154Z,35.187
2022-07-25T12:18:58.982Z,35.625
2022-07-25T12:21:59.097Z,35.625
2022-07-25T12:24:58.666Z,35.312
2022-07-25T12:27:59.461Z,34.625
2022-07-25T12:30:58.989Z,34.25
2022-07-25T12:33:59.041Z,35.187
2022-07-25T12:36:59.430Z,35.187
2022-07-25T12:39:58.983Z,34.75
2022-07-25T12:42:58.951Z,35.062
2022-07-25T12:45:59.893Z,35.062
2022-07-25T12:48:58.740Z,34.062
2022-07-25T12:51:59.257Z,34.812
2022-07-25T12:54:59.621Z,35.375
2022-07-25T12:57:59.425Z,34.5
2022-07-25T13:01:03.203Z,33.687
2022-07-25T13:03:58.711Z,34.312
2022-07-25T13:06:59.065Z,34.312
2022-07-25T13:09:59.272Z,34.5
2022-07-25T13:12:59.528Z,36.25
2022-07-25T13:15:59.513Z,34.75
2022-07-25T13:18:58.671Z,34.875
2022-07-25T13:21:59.135Z,35.375
2022-07-25T13:24:58.607Z,35.375
2022-07-25T13:27:59.213Z,35.75
2022-07-25T13:30:59.695Z,35.25
2022-07-25T13:33:59.117Z,35.875
2022-07-25T13:36:59.175Z,36.312
2022-07-25T13:39:59.909Z,35.562
2022-07-25T13:42:59.237Z,35.562
2022-07-25T13:45:59.320Z,33.187
2022-07-25T13:48:58.889Z,33.5
2022-07-25T13:51:59.893Z,33.25
2022-07-25T13:54:58.825Z,34.562
2022-07-25T13:57:59.684Z,34.562
2022-07-25T14:01:00.249Z,34.5
2022-07-25T14:03:58.702Z,33.875
2022-07-25T14:06:59.628Z,32.812
2022-07-25T14:09:58.944Z,32.437
2022-07-25T14:12:59.601Z,32.5
2022-07-25T14:15:59.890Z,32.375
2022-07-25T14:18:58.903Z,32.125
2022-07-25T14:21:58.647Z,31.812
2022-07-25T14:24:59.580Z,31.875
2022-07-25T14:27:59.400Z,31.937
2022-07-25T14:30:59.332Z,31.875
2022-07-25T14:33:59.328Z,31.875
2022-07-25T14:36:59.589Z,31.687
2022-07-25T14:39:59.230Z,31.562
2022-07-25T14:42:59.203Z,31.687
2022-07-25T14:45:59.655Z,31.812
2022-07-25T14:48:59.255Z,31.625
2022-07-25T14:51:59.227Z,31.625
2022-07-25T14:54:59.708Z,31.625
2022-07-25T14:57:58.953Z,31.437
2022-07-25T15:00:59.149Z,31.437
2022-07-25T15:03:58.812Z,31.312
2022-07-25T15:06:58.800Z,31.437
2022-07-25T15:09:59.321Z,31.437
2022-07-25T15:13:28.246Z,31.437
2022-07-25T15:15:58.935Z,31.437
2022-07-25T15:19:16.040Z,30.812
2022-07-25T15:21:59.012Z,30.437
2022-07-25T15:25:28.627Z,30.312
2022-07-25T15:27:58.573Z,30.125
2022-07-25T15:31:00.247Z,30.062
2022-07-25T15:33:59.133Z,29.875
2022-07-25T15:36:59.611Z,29.812
2022-07-25T15:39:59.987Z,26.5
2022-07-25T15:42:58.458Z,26.5
2022-07-25T15:45:59.351Z,23.437
2022-07-25T15:48:59.479Z,24.187
2022-07-25T15:51:59.372Z,24.687
2022-07-25T15:54:59.051Z,25.437
2022-07-25T15:57:59.442Z,25.437
2022-07-25T16:00:59.409Z,25.937
2022-07-25T16:03:59.023Z,25.875
2022-07-25T16:06:59.654Z,25.75
2022-07-25T16:10:00.068Z,25.875
2022-07-25T16:12:59.595Z,25.875
2022-07-25T16:15:59.799Z,25.562
2022-07-25T16:18:59.860Z,25.625
2022-07-25T16:21:59.597Z,25.812
2022-07-25T16:24:59.749Z,25.937
2022-07-25T16:27:59.308Z,26.25
2022-07-25T16:31:00.052Z,26.562
2022-07-25T16:33:59.625Z,26.562
2022-07-25T16:36:59.159Z,26.625
2022-07-25T16:39:59.759Z,26.75
2022-07-25T16:42:58.675Z,26.625
2022-07-25T16:45:59.412Z,26.562
2022-07-25T16:48:59.430Z,26.562
2022-07-25T16:52:00.811Z,26.562
2022-07-25T16:54:59.007Z,26.625
2022-07-25T16:57:59.348Z,26.875
2022-07-25T17:00:59.758Z,27.0
2022-07-25T17:03:59.607Z,26.937
2022-07-25T17:06:59.132Z,26.937
2022-07-25T17:09:59.022Z,26.875
2022-07-25T17:12:59.672Z,26.812
2022-07-25T17:15:59.096Z,26.75
2022-07-25T17:18:58.991Z,26.562
2022-07-25T17:21:58.643Z,26.375
2022-07-25T17:24:59.396Z,26.062
2022-07-25T17:27:58.985Z,26.062
2022-07-25T17:30:59.235Z,26.125
2022-07-25T17:33:58.839Z,26.25
2022-07-25T17:36:58.802Z,26.312
2022-07-25T17:39:59.213Z,26.25
2022-07-25T17:42:58.738Z,26.25
2022-07-25T17:45:59.855Z,26.125
2022-07-25T17:48:59.033Z,25.937
2022-07-25T17:51:58.752Z,25.812
2022-07-25T17:54:58.676Z,25.937
2022-07-25T17:57:58.659Z,26.062
2022-07-25T18:01:26.304Z,26.0
2022-07-25T18:03:59.050Z,25.875
2022-07-25T18:06:59.002Z,25.875
2022-07-25T18:09:59.312Z,25.875
2022-07-25T18:12:59.286Z,25.937
2022-07-25T18:15:59.054Z,25.937
2022-07-25T18:18:58.816Z,26.0
2022-07-25T18:21:59.322Z,26.0
2022-07-25T18:24:58.728Z,26.0
2022-07-25T18:27:59.301Z,26.125
2022-07-25T18:30:59.472Z,26.25
2022-07-25T18:33:59.117Z,26.187
2022-07-25T18:36:59.698Z,26.062
2022-07-25T18:39:59.504Z,25.937
2022-07-25T18:42:58.485Z,26.0
2022-07-25T18:46:00.462Z,26.0
2022-07-25T18:48:58.552Z,25.75
2022-07-25T18:51:58.826Z,25.812
2022-07-25T18:54:58.749Z,25.75
2022-07-25T18:57:59.388Z,25.562
2022-07-25T19:01:00.713Z,25.5
2022-07-25T19:03:59.523Z,25.5
2022-07-25T19:06:59.671Z,25.687
2022-07-25T19:09:59.813Z,25.687
2022-07-25T19:12:58.602Z,25.562
2022-07-25T19:15:59.533Z,25.375
2022-07-25T19:18:58.889Z,25.187
2022-07-25T19:21:59.446Z,25.125
2022-07-25T19:24:58.596Z,25.062
2022-07-25T19:27:58.832Z,24.937
2022-07-25T19:30:59.182Z,24.937
2022-07-25T19:33:59.403Z,24.75
2022-07-25T19:36:59.225Z,24.625
2022-07-25T19:39:58.973Z,24.5
2022-07-25T19:42:59.292Z,24.312
2022-07-25T19:45:59.480Z,24.187
2022-07-25T19:48:58.918Z,24.187
2022-07-25T19:51:58.978Z,23.875
2022-07-25T19:54:59.309Z,23.875
2022-07-25T19:57:58.907Z,23.687
2022-07-25T20:00:59.396Z,23.625
2022-07-25T20:03:59.728Z,23.625
2022-07-25T20:06:58.858Z,23.5
2022-07-25T20:09:59.247Z,23.437
2022-07-25T20:13:01.375Z,23.312
2022-07-25T20:15:59.631Z,23.25
2022-07-25T20:18:59.701Z,23.187
2022-07-25T20:21:58.614Z,23.0
2022-07-25T20:24:58.574Z,23.0
2022-07-25T20:27:58.730Z,22.875
2022-07-25T20:30:59.115Z,22.875
2022-07-25T20:33:59.430Z,22.687
2022-07-25T20:36:59.392Z,22.562
2022-07-25T20:39:59.457Z,22.5
2022-07-25T20:42:59.316Z,22.437
2022-07-25T20:45:59.616Z,22.437
2022-07-25T20:48:58.788Z,22.312
2022-07-25T20:51:59.358Z,22.312
2022-07-25T20:54:58.989Z,22.312
2022-07-25T20:57:59.640Z,22.312
2022-07-25T21:00:59.356Z,22.312
2022-07-25T21:03:58.510Z,22.25
2022-07-25T21:06:58.721Z,22.25
2022-07-25T21:09:58.997Z,22.062
2022-07-25T21:12:59.369Z,22.062
2022-07-25T21:15:59.323Z,22.062
2022-07-25T21:18:58.738Z,21.812
2022-07-25T21:21:58.798Z,21.875
2022-07-25T21:24:59.664Z,21.812
2022-07-25T21:27:58.798Z,21.812
2022-07-25T21:30:59.003Z,21.75
2022-07-25T21:33:59.112Z,21.75
2022-07-25T21:36:59.529Z,21.812
2022-07-25T21:39:59.258Z,21.75
2022-07-25T21:42:59.381Z,21.812
2022-07-25T21:45:59.444Z,21.812
2022-07-25T21:48:58.880Z,21.75
2022-07-25T21:51:59.358Z,21.687
2022-07-25T21:54:59.123Z,21.625
2022-07-25T21:57:58.830Z,21.5
2022-07-25T22:00:59.670Z,21.375
2022-07-25T22:03:59.082Z,21.375
2022-07-25T22:06:59.359Z,21.25
2022-07-25T22:09:59.643Z,21.25
2022-07-25T22:12:58.430Z,21.187
2022-07-25T22:15:58.346Z,21.125
2022-07-25T22:18:59.024Z,21.0
2022-07-25T22:21:59.024Z,20.875
2022-07-25T22:24:58.925Z,20.75
2022-07-25T22:27:59.218Z,20.625
2022-07-25T22:30:59.810Z,20.562
2022-07-25T22:33:58.596Z,20.562
2022-07-25T22:36:58.629Z,20.437
2022-07-25T22:40:01.113Z,20.375
2022-07-25T22:42:58.630Z,20.437
2022-07-25T22:45:59.645Z,20.375
2022-07-25T22:48:59.551Z,20.375
2022-07-25T22:51:59.064Z,20.375
2022-07-25T22:54:58.750Z,20.312
2022-07-25T22:57:58.457Z,20.312
2022-07-25T23:00:59.323Z,20.25
2022-07-25T23:03:58.516Z,20.375
2022-07-25T23:06:58.322Z,20.312
2022-07-25T23:09:59.280Z,20.437
2022-07-25T23:12:59.163Z,20.375
2022-07-25T23:15:59.356Z,20.312
2022-07-25T23:18:59.423Z,20.25
2022-07-25T23:21:58.499Z,20.25
2022-07-25T23:24:59.196Z,20.25
2022-07-25T23:27:58.930Z,20.25
2022-07-25T23:31:10.245Z,20.25
2022-07-25T23:33:59.113Z,20.375
2022-07-25T23:36:59.228Z,20.312
2022-07-25T23:39:58.841Z,20.437
2022-07-25T23:42:58.514Z,20.375
2022-07-25T23:45:59.238Z,20.375
2022-07-25T23:48:58.522Z,20.375
2022-07-25T23:51:58.447Z,20.437
2022-07-25T23:54:59.375Z,20.312
2022-07-25T23:57:58.601Z,20.312
